sensor_id;sensor_type;location;lat;lon;timestamp;pressure;altitude;pressure_sealevel;temperature;humidity
38616;BME280;24370;51.986;4.666;2023-05-07T00:02:13;101680.50;;;25.76;43.77
38616;BME280;24370;51.986;4.666;2023-05-07T00:04:39;101676.28;;;25.86;43.22
38616;BME280;24370;51.986;4.666;2023-05-07T00:07:04;101684.97;;;25.76;43.72
38616;BME280;24370;51.986;4.666;2023-05-07T00:09:30;101675.91;;;25.64;44.32
38616;BME280;24370;51.986;4.666;2023-05-07T00:11:56;101678.22;;;25.84;43.81
38616;BME280;24370;51.986;4.666;2023-05-07T00:14:21;101684.16;;;25.29;44.43
38616;BME280;24370;51.986;4.666;2023-05-07T00:16:46;101686.38;;;26.12;42.87
38616;BME280;24370;51.986;4.666;2023-05-07T00:19:12;101679.38;;;25.50;44.97
38616;BME280;24370;51.986;4.666;2023-05-07T00:21:37;101682.94;;;25.65;44.30
38616;BME280;24370;51.986;4.666;2023-05-07T00:24:05;101683.56;;;25.84;43.88
38616;BME280;24370;51.986;4.666;2023-05-07T00:26:31;101675.81;;;25.35;44.43
38616;BME280;24370;51.986;4.666;2023-05-07T00:28:56;101678.19;;;25.55;44.79
38616;BME280;24370;51.986;4.666;2023-05-07T00:31:22;101668.59;;;25.51;45.05
38616;BME280;24370;51.986;4.666;2023-05-07T00:33:47;101672.53;;;25.74;43.86
38616;BME280;24370;51.986;4.666;2023-05-07T00:36:12;101667.31;;;25.87;42.95
38616;BME280;24370;51.986;4.666;2023-05-07T00:38:38;101662.63;;;26.20;42.76
38616;BME280;24370;51.986;4.666;2023-05-07T00:41:04;101671.75;;;26.03;43.70
38616;BME280;24370;51.986;4.666;2023-05-07T00:43:30;101674.00;;;25.95;43.71
38616;BME280;24370;51.986;4.666;2023-05-07T00:45:55;101668.28;;;26.30;42.61
38616;BME280;24370;51.986;4.666;2023-05-07T00:48:21;101665.25;;;26.07;43.60
38616;BME280;24370;51.986;4.666;2023-05-07T00:50:46;101666.53;;;25.85;44.04
38616;BME280;24370;51.986;4.666;2023-05-07T00:53:13;101664.63;;;26.31;42.30
38616;BME280;24370;51.986;4.666;2023-05-07T00:55:39;101663.69;;;26.46;42.67
38616;BME280;24370;51.986;4.666;2023-05-07T00:58:04;101667.38;;;26.58;42.59
38616;BME280;24370;51.986;4.666;2023-05-07T01:00:30;101668.28;;;26.15;42.68
38616;BME280;24370;51.986;4.666;2023-05-07T01:02:57;101676.06;;;26.05;43.32
38616;BME280;24370;51.986;4.666;2023-05-07T01:05:23;101668.28;;;26.01;43.77
38616;BME280;24370;51.986;4.666;2023-05-07T01:07:50;101660.97;;;25.74;43.57
38616;BME280;24370;51.986;4.666;2023-05-07T01:10:17;101658.16;;;26.20;43.31
38616;BME280;24370;51.986;4.666;2023-05-07T01:12:43;101656.06;;;26.26;43.27
38616;BME280;24370;51.986;4.666;2023-05-07T01:15:10;101654.59;;;26.20;43.60
38616;BME280;24370;51.986;4.666;2023-05-07T01:17:39;101654.47;;;26.50;42.69
38616;BME280;24370;51.986;4.666;2023-05-07T01:20:05;101650.69;;;25.97;44.42
38616;BME280;24370;51.986;4.666;2023-05-07T01:22:38;101652.22;;;26.01;44.06
38616;BME280;24370;51.986;4.666;2023-05-07T01:25:05;101652.84;;;25.61;44.70
38616;BME280;24370;51.986;4.666;2023-05-07T01:27:31;101659.25;;;25.73;44.45
38616;BME280;24370;51.986;4.666;2023-05-07T01:29:58;101658.34;;;25.88;43.76
38616;BME280;24370;51.986;4.666;2023-05-07T01:32:29;101650.47;;;25.71;44.45
38616;BME280;24370;51.986;4.666;2023-05-07T01:34:57;101651.56;;;25.52;44.59
38616;BME280;24370;51.986;4.666;2023-05-07T01:37:24;101654.69;;;25.89;43.80
38616;BME280;24370;51.986;4.666;2023-05-07T01:39:50;101648.69;;;25.41;44.67
38616;BME280;24370;51.986;4.666;2023-05-07T01:42:16;101648.19;;;25.34;45.52
38616;BME280;24370;51.986;4.666;2023-05-07T01:44:41;101650.91;;;25.49;45.28
38616;BME280;24370;51.986;4.666;2023-05-07T01:47:07;101642.53;;;25.69;44.20
38616;BME280;24370;51.986;4.666;2023-05-07T01:49:34;101639.78;;;25.10;46.02
38616;BME280;24370;51.986;4.666;2023-05-07T01:52:00;101644.03;;;25.29;45.40
38616;BME280;24370;51.986;4.666;2023-05-07T01:54:26;101643.16;;;25.44;44.21
38616;BME280;24370;51.986;4.666;2023-05-07T01:56:53;101640.88;;;25.52;44.55
38616;BME280;24370;51.986;4.666;2023-05-07T01:59:18;101642.88;;;25.18;45.34
38616;BME280;24370;51.986;4.666;2023-05-07T02:01:44;101644.69;;;25.48;44.71
38616;BME280;24370;51.986;4.666;2023-05-07T02:04:09;101643.19;;;25.59;44.92
38616;BME280;24370;51.986;4.666;2023-05-07T02:06:34;101645.00;;;25.87;44.06
38616;BME280;24370;51.986;4.666;2023-05-07T02:09:01;101644.13;;;25.57;44.25
38616;BME280;24370;51.986;4.666;2023-05-07T02:11:26;101642.19;;;25.45;45.18
38616;BME280;24370;51.986;4.666;2023-05-07T02:13:52;101629.91;;;26.00;44.09
38616;BME280;24370;51.986;4.666;2023-05-07T02:16:18;101630.03;;;26.13;43.43
38616;BME280;24370;51.986;4.666;2023-05-07T02:18:44;101640.72;;;25.84;43.88
38616;BME280;24370;51.986;4.666;2023-05-07T02:21:09;101642.50;;;25.40;45.43
38616;BME280;24370;51.986;4.666;2023-05-07T02:23:35;101642.03;;;25.63;44.90
38616;BME280;24370;51.986;4.666;2023-05-07T02:26:00;101650.66;;;25.68;44.71
38616;BME280;24370;51.986;4.666;2023-05-07T02:28:25;101646.06;;;25.55;44.80
38616;BME280;24370;51.986;4.666;2023-05-07T02:30:52;101643.69;;;25.80;44.37
38616;BME280;24370;51.986;4.666;2023-05-07T02:33:17;101654.09;;;25.99;44.01
38616;BME280;24370;51.986;4.666;2023-05-07T02:35:43;101642.72;;;25.95;44.05
38616;BME280;24370;51.986;4.666;2023-05-07T02:38:08;101643.91;;;26.05;44.19
38616;BME280;24370;51.986;4.666;2023-05-07T02:40:36;101653.34;;;26.40;42.96
38616;BME280;24370;51.986;4.666;2023-05-07T02:43:04;101652.97;;;25.88;44.08
38616;BME280;24370;51.986;4.666;2023-05-07T02:45:30;101655.66;;;26.03;44.02
38616;BME280;24370;51.986;4.666;2023-05-07T02:47:56;101651.25;;;25.87;43.48
38616;BME280;24370;51.986;4.666;2023-05-07T02:50:21;101643.81;;;26.07;43.29
38616;BME280;24370;51.986;4.666;2023-05-07T02:52:46;101649.25;;;26.05;44.08
38616;BME280;24370;51.986;4.666;2023-05-07T02:55:12;101651.97;;;25.61;44.64
38616;BME280;24370;51.986;4.666;2023-05-07T02:57:38;101643.59;;;25.96;44.02
38616;BME280;24370;51.986;4.666;2023-05-07T03:00:20;101641.03;;;26.23;43.10
38616;BME280;24370;51.986;4.666;2023-05-07T03:02:45;101645.41;;;25.95;43.81
38616;BME280;24370;51.986;4.666;2023-05-07T03:05:11;101648.88;;;25.38;44.99
38616;BME280;24370;51.986;4.666;2023-05-07T03:07:37;101646.56;;;25.77;44.02
38616;BME280;24370;51.986;4.666;2023-05-07T03:10:06;101650.41;;;25.42;44.74
38616;BME280;24370;51.986;4.666;2023-05-07T03:12:31;101647.03;;;25.83;44.00
38616;BME280;24370;51.986;4.666;2023-05-07T03:14:57;101649.06;;;25.35;44.84
38616;BME280;24370;51.986;4.666;2023-05-07T03:17:22;101652.97;;;25.88;44.23
38616;BME280;24370;51.986;4.666;2023-05-07T03:19:47;101650.38;;;25.87;43.80
38616;BME280;24370;51.986;4.666;2023-05-07T03:22:13;101645.50;;;26.22;43.41
38616;BME280;24370;51.986;4.666;2023-05-07T03:24:39;101642.03;;;26.49;42.85
38616;BME280;24370;51.986;4.666;2023-05-07T03:27:04;101641.09;;;26.78;42.33
38616;BME280;24370;51.986;4.666;2023-05-07T03:29:30;101640.34;;;26.61;42.45
38616;BME280;24370;51.986;4.666;2023-05-07T03:31:55;101649.69;;;25.69;44.31
38616;BME280;24370;51.986;4.666;2023-05-07T03:34:21;101643.56;;;25.81;44.41
38616;BME280;24370;51.986;4.666;2023-05-07T03:36:48;101641.88;;;25.80;43.95
38616;BME280;24370;51.986;4.666;2023-05-07T03:39:13;101635.53;;;26.39;43.21
38616;BME280;24370;51.986;4.666;2023-05-07T03:41:39;101638.91;;;26.28;42.50
38616;BME280;24370;51.986;4.666;2023-05-07T03:44:05;101635.34;;;26.42;43.00
38616;BME280;24370;51.986;4.666;2023-05-07T03:46:31;101638.44;;;26.21;43.30
38616;BME280;24370;51.986;4.666;2023-05-07T03:48:57;101647.03;;;25.98;43.36
38616;BME280;24370;51.986;4.666;2023-05-07T03:51:23;101647.78;;;25.85;44.30
38616;BME280;24370;51.986;4.666;2023-05-07T03:53:48;101654.31;;;26.10;43.77
38616;BME280;24370;51.986;4.666;2023-05-07T03:56:14;101647.44;;;26.20;43.06
38616;BME280;24370;51.986;4.666;2023-05-07T03:58:39;101647.91;;;26.27;43.25
38616;BME280;24370;51.986;4.666;2023-05-07T04:01:05;101654.28;;;26.39;42.69
38616;BME280;24370;51.986;4.666;2023-05-07T04:03:30;101658.72;;;26.11;43.37
38616;BME280;24370;51.986;4.666;2023-05-07T04:05:56;101658.34;;;26.17;43.13
38616;BME280;24370;51.986;4.666;2023-05-07T04:08:21;101662.22;;;26.40;42.64
38616;BME280;24370;51.986;4.666;2023-05-07T04:10:46;101658.22;;;26.33;42.86
38616;BME280;24370;51.986;4.666;2023-05-07T04:13:12;101661.53;;;26.51;42.73
38616;BME280;24370;51.986;4.666;2023-05-07T04:15:37;101658.53;;;26.14;42.92
38616;BME280;24370;51.986;4.666;2023-05-07T04:18:06;101664.81;;;25.99;43.76
38616;BME280;24370;51.986;4.666;2023-05-07T04:20:33;101665.03;;;25.96;44.00
38616;BME280;24370;51.986;4.666;2023-05-07T04:22:59;101665.03;;;25.96;44.01
38616;BME280;24370;51.986;4.666;2023-05-07T04:25:25;101664.13;;;25.95;43.75
38616;BME280;24370;51.986;4.666;2023-05-07T04:27:51;101660.25;;;26.15;43.18
38616;BME280;24370;51.986;4.666;2023-05-07T04:30:17;101656.34;;;26.06;43.39
38616;BME280;24370;51.986;4.666;2023-05-07T04:32:42;101664.66;;;26.02;43.35
38616;BME280;24370;51.986;4.666;2023-05-07T04:35:09;101659.97;;;26.05;43.46
38616;BME280;24370;51.986;4.666;2023-05-07T04:37:35;101661.22;;;26.14;43.31
38616;BME280;24370;51.986;4.666;2023-05-07T04:40:00;101653.44;;;26.24;42.81
38616;BME280;24370;51.986;4.666;2023-05-07T04:42:26;101655.63;;;25.74;43.84
38616;BME280;24370;51.986;4.666;2023-05-07T04:44:53;101648.00;;;26.11;43.46
38616;BME280;24370;51.986;4.666;2023-05-07T04:47:19;101652.38;;;25.98;43.71
38616;BME280;24370;51.986;4.666;2023-05-07T04:49:44;101654.88;;;26.01;43.64
38616;BME280;24370;51.986;4.666;2023-05-07T04:52:09;101660.25;;;26.15;43.28
38616;BME280;24370;51.986;4.666;2023-05-07T04:54:35;101661.56;;;25.94;43.21
38616;BME280;24370;51.986;4.666;2023-05-07T04:57:00;101666.19;;;26.06;43.20
38616;BME280;24370;51.986;4.666;2023-05-07T04:59:25;101663.06;;;25.54;44.30
38616;BME280;24370;51.986;4.666;2023-05-07T05:01:51;101667.88;;;25.78;44.01
38616;BME280;24370;51.986;4.666;2023-05-07T05:04:16;101663.38;;;26.36;42.45
38616;BME280;24370;51.986;4.666;2023-05-07T05:06:41;101673.06;;;25.96;43.92
38616;BME280;24370;51.986;4.666;2023-05-07T05:09:07;101662.16;;;26.42;43.02
38616;BME280;24370;51.986;4.666;2023-05-07T05:11:32;101672.97;;;26.26;42.75
38616;BME280;24370;51.986;4.666;2023-05-07T05:13:59;101671.53;;;26.35;42.95
38616;BME280;24370;51.986;4.666;2023-05-07T05:16:25;101672.25;;;26.51;42.79
38616;BME280;24370;51.986;4.666;2023-05-07T05:18:51;101674.94;;;26.51;42.91
38616;BME280;24370;51.986;4.666;2023-05-07T05:21:20;101678.50;;;26.52;42.96
38616;BME280;24370;51.986;4.666;2023-05-07T05:23:45;101676.66;;;26.52;42.45
38616;BME280;24370;51.986;4.666;2023-05-07T05:26:11;101681.28;;;26.36;42.26
38616;BME280;24370;51.986;4.666;2023-05-07T05:28:36;101683.19;;;26.48;42.89
38616;BME280;24370;51.986;4.666;2023-05-07T05:31:02;101694.03;;;25.12;45.30
38616;BME280;24370;51.986;4.666;2023-05-07T05:33:27;101696.63;;;25.74;44.63
38616;BME280;24370;51.986;4.666;2023-05-07T05:35:54;101702.16;;;25.57;44.97
38616;BME280;24370;51.986;4.666;2023-05-07T05:38:19;101701.22;;;26.17;43.90
38616;BME280;24370;51.986;4.666;2023-05-07T05:40:46;101701.41;;;26.29;43.36
38616;BME280;24370;51.986;4.666;2023-05-07T05:43:11;101713.75;;;26.17;43.78
38616;BME280;24370;51.986;4.666;2023-05-07T05:45:36;101708.28;;;26.18;43.51
38616;BME280;24370;51.986;4.666;2023-05-07T05:48:02;101716.59;;;26.28;43.49
38616;BME280;24370;51.986;4.666;2023-05-07T05:50:27;101711.44;;;26.39;43.67
38616;BME280;24370;51.986;4.666;2023-05-07T05:52:53;101711.25;;;26.42;43.35
38616;BME280;24370;51.986;4.666;2023-05-07T05:55:18;101718.81;;;26.21;43.57
38616;BME280;24370;51.986;4.666;2023-05-07T05:57:44;101711.94;;;26.17;44.22
38616;BME280;24370;51.986;4.666;2023-05-07T06:00:10;101724.44;;;25.57;45.62
38616;BME280;24370;51.986;4.666;2023-05-07T06:02:35;101713.88;;;25.99;44.62
38616;BME280;24370;51.986;4.666;2023-05-07T06:05:00;101724.94;;;25.34;45.96
38616;BME280;24370;51.986;4.666;2023-05-07T06:07:26;101715.31;;;25.76;45.82
38616;BME280;24370;51.986;4.666;2023-05-07T06:09:51;101720.66;;;25.90;45.69
38616;BME280;24370;51.986;4.666;2023-05-07T06:12:17;101730.16;;;25.51;46.52
38616;BME280;24370;51.986;4.666;2023-05-07T06:14:45;101720.72;;;26.48;44.37
38616;BME280;24370;51.986;4.666;2023-05-07T06:17:10;101734.06;;;25.76;45.53
38616;BME280;24370;51.986;4.666;2023-05-07T06:19:36;101733.25;;;26.04;44.92
38616;BME280;24370;51.986;4.666;2023-05-07T06:22:01;101727.56;;;25.95;45.89
38616;BME280;24370;51.986;4.666;2023-05-07T06:24:27;101735.53;;;25.66;46.59
38616;BME280;24370;51.986;4.666;2023-05-07T06:26:53;101731.53;;;26.18;44.82
38616;BME280;24370;51.986;4.666;2023-05-07T06:29:18;101740.25;;;26.21;45.08
38616;BME280;24370;51.986;4.666;2023-05-07T06:31:44;101737.06;;;25.70;46.32
38616;BME280;24370;51.986;4.666;2023-05-07T06:34:10;101743.94;;;25.60;46.84
38616;BME280;24370;51.986;4.666;2023-05-07T06:36:39;101740.56;;;25.86;46.53
38616;BME280;24370;51.986;4.666;2023-05-07T06:39:04;101734.59;;;26.12;46.13
38616;BME280;24370;51.986;4.666;2023-05-07T06:41:30;101734.88;;;26.36;45.89
38616;BME280;24370;51.986;4.666;2023-05-07T06:43:55;101731.69;;;25.55;47.19
38616;BME280;24370;51.986;4.666;2023-05-07T06:46:21;101727.53;;;25.50;47.54
38616;BME280;24370;51.986;4.666;2023-05-07T06:48:46;101729.91;;;26.44;45.83
38616;BME280;24370;51.986;4.666;2023-05-07T06:51:11;101722.34;;;26.07;46.19
38616;BME280;24370;51.986;4.666;2023-05-07T06:53:37;101727.41;;;26.27;46.00
38616;BME280;24370;51.986;4.666;2023-05-07T06:56:02;101723.19;;;26.51;45.46
38616;BME280;24370;51.986;4.666;2023-05-07T06:58:27;101724.00;;;25.80;47.54
38616;BME280;24370;51.986;4.666;2023-05-07T07:00:53;101722.16;;;26.39;46.02
38616;BME280;24370;51.986;4.666;2023-05-07T07:03:18;101724.63;;;26.28;45.90
38616;BME280;24370;51.986;4.666;2023-05-07T07:05:43;101717.81;;;26.51;45.66
38616;BME280;24370;51.986;4.666;2023-05-07T07:08:09;101728.53;;;26.51;45.76
38616;BME280;24370;51.986;4.666;2023-05-07T07:10:35;101727.69;;;26.36;46.05
38616;BME280;24370;51.986;4.666;2023-05-07T07:13:00;101725.34;;;26.17;45.54
38616;BME280;24370;51.986;4.666;2023-05-07T07:15:26;101730.31;;;26.09;47.10
38616;BME280;24370;51.986;4.666;2023-05-07T07:17:51;101727.72;;;25.77;48.55
38616;BME280;24370;51.986;4.666;2023-05-07T07:20:17;101723.88;;;25.67;48.16
38616;BME280;24370;51.986;4.666;2023-05-07T07:22:42;101721.81;;;25.86;48.15
38616;BME280;24370;51.986;4.666;2023-05-07T07:25:08;101722.44;;;26.49;47.56
38616;BME280;24370;51.986;4.666;2023-05-07T07:27:34;101723.97;;;26.53;47.04
38616;BME280;24370;51.986;4.666;2023-05-07T07:29:59;101727.38;;;26.84;46.46
38616;BME280;24370;51.986;4.666;2023-05-07T07:32:24;101725.53;;;27.92;44.79
38616;BME280;24370;51.986;4.666;2023-05-07T07:34:50;101723.22;;;28.01;43.50
38616;BME280;24370;51.986;4.666;2023-05-07T07:37:16;101724.22;;;27.59;44.45
38616;BME280;24370;51.986;4.666;2023-05-07T07:39:41;101717.34;;;27.55;44.39
38616;BME280;24370;51.986;4.666;2023-05-07T07:42:07;101711.00;;;28.59;43.72
38616;BME280;24370;51.986;4.666;2023-05-07T07:44:32;101725.31;;;27.83;43.71
38616;BME280;24370;51.986;4.666;2023-05-07T07:46:57;101723.22;;;28.01;42.49
38616;BME280;24370;51.986;4.666;2023-05-07T07:49:23;101721.72;;;29.21;42.15
38616;BME280;24370;51.986;4.666;2023-05-07T07:51:48;101733.81;;;29.75;41.85
38616;BME280;24370;51.986;4.666;2023-05-07T07:54:13;101727.91;;;31.17;38.67
38616;BME280;24370;51.986;4.666;2023-05-07T07:56:39;101736.50;;;30.44;40.56
38616;BME280;24370;51.986;4.666;2023-05-07T07:59:04;101734.91;;;30.53;38.67
38616;BME280;24370;51.986;4.666;2023-05-07T08:01:30;101730.41;;;30.98;38.17
38616;BME280;24370;51.986;4.666;2023-05-07T08:03:56;101733.88;;;32.67;37.24
38616;BME280;24370;51.986;4.666;2023-05-07T08:06:23;101734.53;;;32.90;36.83
38616;BME280;24370;51.986;4.666;2023-05-07T08:08:49;101739.84;;;33.21;36.40
38616;BME280;24370;51.986;4.666;2023-05-07T08:11:14;101738.63;;;34.40;32.29
38616;BME280;24370;51.986;4.666;2023-05-07T08:13:40;101740.09;;;34.80;32.95
38616;BME280;24370;51.986;4.666;2023-05-07T08:16:05;101740.13;;;34.24;33.55
38616;BME280;24370;51.986;4.666;2023-05-07T08:18:30;101741.09;;;35.07;32.43
38616;BME280;24370;51.986;4.666;2023-05-07T08:20:56;101742.97;;;35.42;32.35
38616;BME280;24370;51.986;4.666;2023-05-07T08:23:22;101750.94;;;36.49;30.31
38616;BME280;24370;51.986;4.666;2023-05-07T08:25:48;101750.59;;;34.47;32.43
38616;BME280;24370;51.986;4.666;2023-05-07T08:28:14;101752.00;;;34.51;31.41
38616;BME280;24370;51.986;4.666;2023-05-07T08:30:40;101756.06;;;32.51;33.35
38616;BME280;24370;51.986;4.666;2023-05-07T08:33:06;101759.25;;;31.83;34.78
38616;BME280;24370;51.986;4.666;2023-05-07T08:35:31;101761.59;;;30.79;36.15
38616;BME280;24370;51.986;4.666;2023-05-07T08:37:56;101758.28;;;31.84;35.74
38616;BME280;24370;51.986;4.666;2023-05-07T08:40:25;101769.97;;;30.53;37.24
38616;BME280;24370;51.986;4.666;2023-05-07T08:42:52;101750.66;;;31.57;37.31
38616;BME280;24370;51.986;4.666;2023-05-07T08:45:19;101763.09;;;32.33;35.19
38616;BME280;24370;51.986;4.666;2023-05-07T08:47:58;101759.63;;;33.90;33.54
38616;BME280;24370;51.986;4.666;2023-05-07T08:50:23;101754.66;;;33.56;32.18
38616;BME280;24370;51.986;4.666;2023-05-07T08:52:49;101761.66;;;33.88;30.75
38616;BME280;24370;51.986;4.666;2023-05-07T08:55:15;101759.34;;;33.74;32.11
38616;BME280;24370;51.986;4.666;2023-05-07T08:57:40;101774.69;;;34.12;32.02
38616;BME280;24370;51.986;4.666;2023-05-07T09:00:06;101763.47;;;34.45;30.97
38616;BME280;24370;51.986;4.666;2023-05-07T09:02:33;101764.47;;;33.08;31.86
38616;BME280;24370;51.986;4.666;2023-05-07T09:04:58;101763.94;;;33.83;30.81
38616;BME280;24370;51.986;4.666;2023-05-07T09:07:25;101763.69;;;33.47;32.13
38616;BME280;24370;51.986;4.666;2023-05-07T09:09:51;101771.66;;;33.78;32.22
38616;BME280;24370;51.986;4.666;2023-05-07T09:12:17;101777.94;;;33.39;31.89
38616;BME280;24370;51.986;4.666;2023-05-07T09:14:44;101773.50;;;31.64;34.38
38616;BME280;24370;51.986;4.666;2023-05-07T09:17:09;101768.41;;;32.75;32.53
38616;BME280;24370;51.986;4.666;2023-05-07T09:19:35;101769.78;;;31.00;35.57
38616;BME280;24370;51.986;4.666;2023-05-07T09:22:06;101768.72;;;31.56;35.23
38616;BME280;24370;51.986;4.666;2023-05-07T09:24:32;101769.78;;;32.59;33.63
38616;BME280;24370;51.986;4.666;2023-05-07T09:27:03;101765.66;;;33.45;32.17
38616;BME280;24370;51.986;4.666;2023-05-07T09:29:29;101765.81;;;33.34;32.67
38616;BME280;24370;51.986;4.666;2023-05-07T09:32:00;101777.38;;;32.35;33.16
38616;BME280;24370;51.986;4.666;2023-05-07T09:34:26;101779.16;;;32.03;33.62
38616;BME280;24370;51.986;4.666;2023-05-07T09:36:51;101773.69;;;32.36;33.65
38616;BME280;24370;51.986;4.666;2023-05-07T09:39:17;101773.13;;;32.73;33.31
38616;BME280;24370;51.986;4.666;2023-05-07T09:41:46;101776.94;;;32.08;33.76
38616;BME280;24370;51.986;4.666;2023-05-07T09:44:13;101781.56;;;31.43;34.01
38616;BME280;24370;51.986;4.666;2023-05-07T09:46:42;101781.47;;;32.08;34.59
38616;BME280;24370;51.986;4.666;2023-05-07T09:49:12;101780.78;;;33.38;32.94
38616;BME280;24370;51.986;4.666;2023-05-07T09:51:48;101780.56;;;32.90;32.31
38616;BME280;24370;51.986;4.666;2023-05-07T09:54:16;101773.06;;;33.82;32.44
38616;BME280;24370;51.986;4.666;2023-05-07T09:56:43;101781.63;;;33.28;31.70
38616;BME280;24370;51.986;4.666;2023-05-07T09:59:13;101770.63;;;33.49;32.38
38616;BME280;24370;51.986;4.666;2023-05-07T10:01:41;101771.19;;;33.73;31.88
38616;BME280;24370;51.986;4.666;2023-05-07T10:04:07;101786.91;;;33.49;30.14
38616;BME280;24370;51.986;4.666;2023-05-07T10:06:34;101783.56;;;34.14;30.44
38616;BME280;24370;51.986;4.666;2023-05-07T10:09:01;101791.78;;;34.32;30.29
38616;BME280;24370;51.986;4.666;2023-05-07T10:11:27;101784.81;;;35.49;28.93
38616;BME280;24370;51.986;4.666;2023-05-07T10:13:54;101783.97;;;35.49;28.23
38616;BME280;24370;51.986;4.666;2023-05-07T10:16:21;101782.53;;;35.09;29.30
38616;BME280;24370;51.986;4.666;2023-05-07T10:18:46;101783.22;;;34.93;28.16
38616;BME280;24370;51.986;4.666;2023-05-07T10:21:18;101785.56;;;35.60;28.44
38616;BME280;24370;51.986;4.666;2023-05-07T10:23:58;101780.78;;;35.80;28.77
38616;BME280;24370;51.986;4.666;2023-05-07T10:26:25;101777.31;;;36.99;26.68
38616;BME280;24370;51.986;4.666;2023-05-07T10:28:58;101777.53;;;37.72;25.44
38616;BME280;24370;51.986;4.666;2023-05-07T10:32:04;101779.38;;;35.49;27.59
38616;BME280;24370;51.986;4.666;2023-05-07T10:34:41;101788.25;;;36.30;26.00
38616;BME280;24370;51.986;4.666;2023-05-07T10:37:09;101782.69;;;35.25;28.60
38616;BME280;24370;51.986;4.666;2023-05-07T10:39:35;101779.47;;;35.84;28.13
38616;BME280;24370;51.986;4.666;2023-05-07T10:42:08;101794.56;;;36.74;26.20
38616;BME280;24370;51.986;4.666;2023-05-07T10:44:34;101796.41;;;37.08;25.67
38616;BME280;24370;51.986;4.666;2023-05-07T10:47:10;101803.97;;;36.37;26.30
38616;BME280;24370;51.986;4.666;2023-05-07T10:54:36;101794.97;;;35.83;28.91
38616;BME280;24370;51.986;4.666;2023-05-07T10:59:52;101796.09;;;36.68;26.29
38616;BME280;24370;51.986;4.666;2023-05-07T11:02:18;101794.91;;;36.02;26.73
38616;BME280;24370;51.986;4.666;2023-05-07T11:04:44;101804.25;;;35.81;28.04
38616;BME280;24370;51.986;4.666;2023-05-07T11:07:30;101799.25;;;35.32;28.41
38616;BME280;24370;51.986;4.666;2023-05-07T11:09:57;101794.84;;;35.49;27.96
38616;BME280;24370;51.986;4.666;2023-05-07T11:15:08;101797.38;;;34.59;28.56
38616;BME280;24370;51.986;4.666;2023-05-07T11:17:51;101792.78;;;35.51;26.90
38616;BME280;24370;51.986;4.666;2023-05-07T11:20:17;101798.41;;;35.31;27.52
38616;BME280;24370;51.986;4.666;2023-05-07T11:22:43;101801.81;;;35.33;27.45
38616;BME280;24370;51.986;4.666;2023-05-07T11:25:08;101801.97;;;34.11;28.65
38616;BME280;24370;51.986;4.666;2023-05-07T11:27:34;101797.53;;;34.29;28.99
38616;BME280;24370;51.986;4.666;2023-05-07T11:29:59;101804.88;;;34.75;28.25
38616;BME280;24370;51.986;4.666;2023-05-07T11:32:31;101804.06;;;34.92;28.31
38616;BME280;24370;51.986;4.666;2023-05-07T11:34:58;101791.81;;;34.60;29.45
38616;BME280;24370;51.986;4.666;2023-05-07T11:37:25;101796.59;;;35.22;27.84
38616;BME280;24370;51.986;4.666;2023-05-07T11:40:02;101794.66;;;35.69;27.57
38616;BME280;24370;51.986;4.666;2023-05-07T11:42:30;101798.75;;;35.91;27.89
38616;BME280;24370;51.986;4.666;2023-05-07T11:44:56;101799.75;;;34.44;29.10
38616;BME280;24370;51.986;4.666;2023-05-07T11:47:22;101804.28;;;34.53;28.45
38616;BME280;24370;51.986;4.666;2023-05-07T11:49:48;101805.72;;;34.47;28.15
38616;BME280;24370;51.986;4.666;2023-05-07T11:52:15;101803.06;;;36.02;26.76
38616;BME280;24370;51.986;4.666;2023-05-07T11:54:40;101804.25;;;35.81;27.50
38616;BME280;24370;51.986;4.666;2023-05-07T11:57:06;101803.97;;;36.37;26.71
38616;BME280;24370;51.986;4.666;2023-05-07T11:59:39;101802.78;;;35.87;27.17
38616;BME280;24370;51.986;4.666;2023-05-07T12:02:06;101802.81;;;35.50;26.53
38616;BME280;24370;51.986;4.666;2023-05-07T12:04:31;101806.31;;;35.43;27.59
38616;BME280;24370;51.986;4.666;2023-05-07T12:06:57;101806.31;;;35.43;27.28
38616;BME280;24370;51.986;4.666;2023-05-07T12:09:22;101808.69;;;35.10;27.60
38616;BME280;24370;51.986;4.666;2023-05-07T12:11:48;101798.31;;;33.92;28.85
38616;BME280;24370;51.986;4.666;2023-05-07T12:14:14;101805.00;;;34.73;27.72
38616;BME280;24370;51.986;4.666;2023-05-07T12:16:41;101807.88;;;34.72;28.55
38616;BME280;24370;51.986;4.666;2023-05-07T12:19:07;101804.06;;;34.92;27.01
38616;BME280;24370;51.986;4.666;2023-05-07T12:21:34;101804.69;;;34.86;28.31
38616;BME280;24370;51.986;4.666;2023-05-07T12:23:59;101797.50;;;35.31;27.18
38616;BME280;24370;51.986;4.666;2023-05-07T12:26:25;101806.69;;;34.84;27.92
38616;BME280;24370;51.986;4.666;2023-05-07T12:28:51;101814.91;;;34.64;28.51
38616;BME280;24370;51.986;4.666;2023-05-07T12:31:17;101804.78;;;34.66;29.03
38616;BME280;24370;51.986;4.666;2023-05-07T12:33:43;101809.59;;;33.78;28.90
38616;BME280;24370;51.986;4.666;2023-05-07T12:36:08;101802.19;;;33.80;28.98
38616;BME280;24370;51.986;4.666;2023-05-07T12:38:35;101809.06;;;34.31;28.49
38616;BME280;24370;51.986;4.666;2023-05-07T12:41:01;101808.53;;;33.10;30.01
38616;BME280;24370;51.986;4.666;2023-05-07T12:43:28;101803.31;;;33.28;29.92
38616;BME280;24370;51.986;4.666;2023-05-07T12:45:55;101801.03;;;33.53;29.42
38616;BME280;24370;51.986;4.666;2023-05-07T12:48:21;101811.38;;;33.09;29.70
38616;BME280;24370;51.986;4.666;2023-05-07T12:50:51;101814.44;;;33.55;29.17
38616;BME280;24370;51.986;4.666;2023-05-07T12:53:20;101823.97;;;32.79;30.58
38616;BME280;24370;51.986;4.666;2023-05-07T12:55:47;101820.66;;;33.16;30.10
38616;BME280;24370;51.986;4.666;2023-05-07T12:58:17;101827.75;;;32.97;30.79